sensor_id;sensor_type;location;lat;lon;timestamp;temperature;humidity
16118;DHT22;8163;50.118;5.342;2023-07-24T00:01:29;17.20;99.90
16118;DHT22;8163;50.118;5.342;2023-07-24T00:03:57;17.20;99.90
16118;DHT22;8163;50.118;5.342;2023-07-24T00:06:24;17.20;99.90
16118;DHT22;8163;50.118;5.342;2023-07-24T00:08:51;17.20;99.90
16118;DHT22;8163;50.118;5.342;2023-07-24T00:11:18;17.20;99.90
16118;DHT22;8163;50.118;5.342;2023-07-24T00:13:46;17.20;99.90
16118;DHT22;8163;50.118;5.342;2023-07-24T00:16:13;17.20;99.90
16118;DHT22;8163;50.118;5.342;2023-07-24T00:18:40;17.20;99.90
16118;DHT22;8163;50.118;5.342;2023-07-24T00:21:07;17.20;99.90
16118;DHT22;8163;50.118;5.342;2023-07-24T00:23:36;17.20;99.90
16118;DHT22;8163;50.118;5.342;2023-07-24T00:26:04;17.20;99.90
16118;DHT22;8163;50.118;5.342;2023-07-24T00:28:31;17.20;99.90
16118;DHT22;8163;50.118;5.342;2023-07-24T00:31:00;17.20;99.90
16118;DHT22;8163;50.118;5.342;2023-07-24T00:33:27;17.20;99.90
16118;DHT22;8163;50.118;5.342;2023-07-24T00:35:55;17.20;99.90
16118;DHT22;8163;50.118;5.342;2023-07-24T00:38:24;17.20;99.90
16118;DHT22;8163;50.118;5.342;2023-07-24T00:40:51;17.10;99.90
16118;DHT22;8163;50.118;5.342;2023-07-24T00:43:20;17.00;99.90
16118;DHT22;8163;50.118;5.342;2023-07-24T00:45:47;17.00;99.90
16118;DHT22;8163;50.118;5.342;2023-07-24T00:48:16;16.90;99.90
16118;DHT22;8163;50.118;5.342;2023-07-24T00:50:44;16.80;99.90
16118;DHT22;8163;50.118;5.342;2023-07-24T00:53:14;16.80;99.90
16118;DHT22;8163;50.118;5.342;2023-07-24T00:55:41;16.80;99.90
16118;DHT22;8163;50.118;5.342;2023-07-24T00:58:11;16.80;99.90
16118;DHT22;8163;50.118;5.342;2023-07-24T01:00:38;16.80;99.90
16118;DHT22;8163;50.118;5.342;2023-07-24T01:03:07;16.70;99.90
16118;DHT22;8163;50.118;5.342;2023-07-24T01:05:36;16.70;99.90
16118;DHT22;8163;50.118;5.342;2023-07-24T01:08:04;16.70;99.90
16118;DHT22;8163;50.118;5.342;2023-07-24T01:10:31;16.70;99.90
16118;DHT22;8163;50.118;5.342;2023-07-24T01:13:00;16.60;99.90
16118;DHT22;8163;50.118;5.342;2023-07-24T01:15:32;16.70;99.90
16118;DHT22;8163;50.118;5.342;2023-07-24T01:18:01;16.60;99.90
16118;DHT22;8163;50.118;5.342;2023-07-24T01:20:30;16.70;99.90
16118;DHT22;8163;50.118;5.342;2023-07-24T01:23:14;16.60;99.90
16118;DHT22;8163;50.118;5.342;2023-07-24T01:25:53;16.60;99.90
16118;DHT22;8163;50.118;5.342;2023-07-24T01:28:22;16.60;99.90
16118;DHT22;8163;50.118;5.342;2023-07-24T01:30:49;16.60;99.90
16118;DHT22;8163;50.118;5.342;2023-07-24T01:33:17;16.60;99.90
16118;DHT22;8163;50.118;5.342;2023-07-24T01:35:44;16.60;99.90
16118;DHT22;8163;50.118;5.342;2023-07-24T01:38:12;16.60;99.90
16118;DHT22;8163;50.118;5.342;2023-07-24T01:40:40;16.60;99.90
16118;DHT22;8163;50.118;5.342;2023-07-24T01:43:09;16.60;99.90
16118;DHT22;8163;50.118;5.342;2023-07-24T01:45:36;16.60;99.90
16118;DHT22;8163;50.118;5.342;2023-07-24T01:48:04;16.50;99.90
16118;DHT22;8163;50.118;5.342;2023-07-24T01:50:31;16.60;99.90
16118;DHT22;8163;50.118;5.342;2023-07-24T01:52:58;16.60;99.90
16118;DHT22;8163;50.118;5.342;2023-07-24T01:55:25;16.50;99.90
16118;DHT22;8163;50.118;5.342;2023-07-24T01:57:54;16.60;99.90
16118;DHT22;8163;50.118;5.342;2023-07-24T02:00:22;16.50;99.90
16118;DHT22;8163;50.118;5.342;2023-07-24T02:02:49;16.50;99.90
16118;DHT22;8163;50.118;5.342;2023-07-24T02:05:16;16.50;99.90
16118;DHT22;8163;50.118;5.342;2023-07-24T02:07:43;16.40;99.90
16118;DHT22;8163;50.118;5.342;2023-07-24T02:10:10;16.40;99.90
16118;DHT22;8163;50.118;5.342;2023-07-24T02:12:37;16.40;99.90
16118;DHT22;8163;50.118;5.342;2023-07-24T02:15:05;16.40;99.90
16118;DHT22;8163;50.118;5.342;2023-07-24T02:17:35;16.40;99.90
16118;DHT22;8163;50.118;5.342;2023-07-24T02:20:03;16.40;99.90
16118;DHT22;8163;50.118;5.342;2023-07-24T02:22:30;16.40;99.90
16118;DHT22;8163;50.118;5.342;2023-07-24T02:24:57;16.40;99.90
16118;DHT22;8163;50.118;5.342;2023-07-24T02:27:28;16.40;99.90
16118;DHT22;8163;50.118;5.342;2023-07-24T02:29:56;16.40;99.90
16118;DHT22;8163;50.118;5.342;2023-07-24T02:32:23;16.40;99.90
16118;DHT22;8163;50.118;5.342;2023-07-24T02:34:52;16.40;99.90
16118;DHT22;8163;50.118;5.342;2023-07-24T02:37:20;16.40;99.90
16118;DHT22;8163;50.118;5.342;2023-07-24T02:39:47;16.40;99.90
16118;DHT22;8163;50.118;5.342;2023-07-24T02:42:16;16.40;99.90
16118;DHT22;8163;50.118;5.342;2023-07-24T02:44:43;16.40;99.90
16118;DHT22;8163;50.118;5.342;2023-07-24T02:47:09;16.30;99.90
16118;DHT22;8163;50.118;5.342;2023-07-24T02:49:37;16.30;99.90
16118;DHT22;8163;50.118;5.342;2023-07-24T02:52:06;16.30;99.90
16118;DHT22;8163;50.118;5.342;2023-07-24T02:54:34;16.30;99.90
16118;DHT22;8163;50.118;5.342;2023-07-24T02:57:01;16.30;99.90
16118;DHT22;8163;50.118;5.342;2023-07-24T02:59:29;16.30;99.90
16118;DHT22;8163;50.118;5.342;2023-07-24T03:01:57;16.40;99.90
16118;DHT22;8163;50.118;5.342;2023-07-24T03:04:24;16.30;99.90
16118;DHT22;8163;50.118;5.342;2023-07-24T03:06:51;16.40;99.90
16118;DHT22;8163;50.118;5.342;2023-07-24T03:09:19;16.30;99.90
16118;DHT22;8163;50.118;5.342;2023-07-24T03:11:46;16.30;99.90
16118;DHT22;8163;50.118;5.342;2023-07-24T03:14:13;16.30;99.90
16118;DHT22;8163;50.118;5.342;2023-07-24T03:16:41;16.30;99.90
16118;DHT22;8163;50.118;5.342;2023-07-24T03:19:08;16.20;99.90
16118;DHT22;8163;50.118;5.342;2023-07-24T03:21:36;16.20;99.90
16118;DHT22;8163;50.118;5.342;2023-07-24T03:24:04;16.20;99.90
16118;DHT22;8163;50.118;5.342;2023-07-24T03:26:32;16.20;99.90
16118;DHT22;8163;50.118;5.342;2023-07-24T03:29:05;16.20;99.90
16118;DHT22;8163;50.118;5.342;2023-07-24T03:31:32;16.20;99.90
16118;DHT22;8163;50.118;5.342;2023-07-24T03:33:59;16.20;99.90
16118;DHT22;8163;50.118;5.342;2023-07-24T03:36:27;16.30;99.90
16118;DHT22;8163;50.118;5.342;2023-07-24T03:38:54;16.20;99.90
16118;DHT22;8163;50.118;5.342;2023-07-24T03:41:21;16.20;99.90
16118;DHT22;8163;50.118;5.342;2023-07-24T03:43:49;16.20;99.90
16118;DHT22;8163;50.118;5.342;2023-07-24T03:46:16;16.20;99.90
16118;DHT22;8163;50.118;5.342;2023-07-24T03:48:44;16.20;99.90
16118;DHT22;8163;50.118;5.342;2023-07-24T03:51:11;16.10;99.90
16118;DHT22;8163;50.118;5.342;2023-07-24T03:53:38;16.20;99.90
16118;DHT22;8163;50.118;5.342;2023-07-24T03:56:05;16.10;99.90
16118;DHT22;8163;50.118;5.342;2023-07-24T03:58:32;16.20;99.90
16118;DHT22;8163;50.118;5.342;2023-07-24T04:01:00;16.20;99.90
16118;DHT22;8163;50.118;5.342;2023-07-24T04:03:27;16.20;99.90
16118;DHT22;8163;50.118;5.342;2023-07-24T04:05:54;16.20;99.90
16118;DHT22;8163;50.118;5.342;2023-07-24T04:08:24;16.20;99.90
16118;DHT22;8163;50.118;5.342;2023-07-24T04:10:51;16.20;99.90
16118;DHT22;8163;50.118;5.342;2023-07-24T04:13:18;16.20;99.90
16118;DHT22;8163;50.118;5.342;2023-07-24T04:15:45;16.20;99.90
16118;DHT22;8163;50.118;5.342;2023-07-24T04:18:13;16.30;99.90
16118;DHT22;8163;50.118;5.342;2023-07-24T04:20:40;16.30;99.90
16118;DHT22;8163;50.118;5.342;2023-07-24T04:23:07;16.30;99.90
16118;DHT22;8163;50.118;5.342;2023-07-24T04:25:34;16.30;99.90
16118;DHT22;8163;50.118;5.342;2023-07-24T04:28:01;16.30;99.90
16118;DHT22;8163;50.118;5.342;2023-07-24T04:30:28;16.50;99.90
16118;DHT22;8163;50.118;5.342;2023-07-24T04:32:55;16.70;99.90
16118;DHT22;8163;50.118;5.342;2023-07-24T04:35:23;17.10;99.90
16118;DHT22;8163;50.118;5.342;2023-07-24T04:37:50;17.60;99.90
16118;DHT22;8163;50.118;5.342;2023-07-24T04:40:17;17.90;99.90
16118;DHT22;8163;50.118;5.342;2023-07-24T04:42:44;18.60;99.90
16118;DHT22;8163;50.118;5.342;2023-07-24T04:45:16;18.30;99.90
16118;DHT22;8163;50.118;5.342;2023-07-24T04:47:43;18.60;98.70
16118;DHT22;8163;50.118;5.342;2023-07-24T04:50:10;18.90;96.30
16118;DHT22;8163;50.118;5.342;2023-07-24T04:52:39;19.70;93.70
16118;DHT22;8163;50.118;5.342;2023-07-24T04:55:06;18.90;85.10
16118;DHT22;8163;50.118;5.342;2023-07-24T04:57:33;18.50;75.70
16118;DHT22;8163;50.118;5.342;2023-07-24T05:00:00;18.10;72.40
16118;DHT22;8163;50.118;5.342;2023-07-24T05:02:27;18.20;74.80
16118;DHT22;8163;50.118;5.342;2023-07-24T05:04:54;18.60;78.40
16118;DHT22;8163;50.118;5.342;2023-07-24T05:07:21;18.60;79.20
16118;DHT22;8163;50.118;5.342;2023-07-24T05:09:50;19.30;80.20
16118;DHT22;8163;50.118;5.342;2023-07-24T05:12:16;19.10;72.50
16118;DHT22;8163;50.118;5.342;2023-07-24T05:14:43;18.90;66.90
16118;DHT22;8163;50.118;5.342;2023-07-24T05:17:10;18.40;61.50
16118;DHT22;8163;50.118;5.342;2023-07-24T05:19:37;18.10;61.70
16118;DHT22;8163;50.118;5.342;2023-07-24T05:22:04;17.80;64.10
16118;DHT22;8163;50.118;5.342;2023-07-24T05:24:32;17.60;68.10
16118;DHT22;8163;50.118;5.342;2023-07-24T05:27:01;17.50;72.70
16118;DHT22;8163;50.118;5.342;2023-07-24T05:29:28;17.40;77.80
16118;DHT22;8163;50.118;5.342;2023-07-24T05:31:54;17.30;83.10
16118;DHT22;8163;50.118;5.342;2023-07-24T05:34:22;17.30;87.60
16118;DHT22;8163;50.118;5.342;2023-07-24T05:36:49;17.30;91.10
16118;DHT22;8163;50.118;5.342;2023-07-24T05:39:16;17.20;93.30
16118;DHT22;8163;50.118;5.342;2023-07-24T05:41:43;17.20;95.10
16118;DHT22;8163;50.118;5.342;2023-07-24T05:44:11;17.20;96.70
16118;DHT22;8163;50.118;5.342;2023-07-24T05:46:38;17.10;97.80
16118;DHT22;8163;50.118;5.342;2023-07-24T05:49:05;17.10;98.80
16118;DHT22;8163;50.118;5.342;2023-07-24T05:51:35;17.00;99.80
16118;DHT22;8163;50.118;5.342;2023-07-24T05:54:03;17.00;99.90
16118;DHT22;8163;50.118;5.342;2023-07-24T05:56:30;17.10;99.90
16118;DHT22;8163;50.118;5.342;2023-07-24T05:58:56;17.00;99.90
16118;DHT22;8163;50.118;5.342;2023-07-24T06:01:25;17.00;99.90
16118;DHT22;8163;50.118;5.342;2023-07-24T06:03:52;17.00;99.90
16118;DHT22;8163;50.118;5.342;2023-07-24T06:06:19;17.00;99.90
16118;DHT22;8163;50.118;5.342;2023-07-24T06:08:47;17.00;99.90
16118;DHT22;8163;50.118;5.342;2023-07-24T06:11:14;17.00;99.90
16118;DHT22;8163;50.118;5.342;2023-07-24T06:13:40;17.00;99.90
16118;DHT22;8163;50.118;5.342;2023-07-24T06:16:07;17.10;99.90
16118;DHT22;8163;50.118;5.342;2023-07-24T06:18:36;17.10;99.90
16118;DHT22;8163;50.118;5.342;2023-07-24T06:21:03;17.10;99.90
16118;DHT22;8163;50.118;5.342;2023-07-24T06:23:30;17.00;99.90
16118;DHT22;8163;50.118;5.342;2023-07-24T06:25:57;17.00;99.90
16118;DHT22;8163;50.118;5.342;2023-07-24T06:28:23;17.00;99.90
16118;DHT22;8163;50.118;5.342;2023-07-24T06:30:52;17.00;99.90
16118;DHT22;8163;50.118;5.342;2023-07-24T06:33:19;17.00;99.90
16118;DHT22;8163;50.118;5.342;2023-07-24T06:35:48;17.10;99.90
16118;DHT22;8163;50.118;5.342;2023-07-24T06:38:15;17.20;99.90
16118;DHT22;8163;50.118;5.342;2023-07-24T06:40:43;17.30;99.90
16118;DHT22;8163;50.118;5.342;2023-07-24T06:43:10;17.60;99.90
16118;DHT22;8163;50.118;5.342;2023-07-24T06:45:39;18.00;99.90
16118;DHT22;8163;50.118;5.342;2023-07-24T06:48:06;19.30;99.90
16118;DHT22;8163;50.118;5.342;2023-07-24T06:50:33;20.30;99.90
16118;DHT22;8163;50.118;5.342;2023-07-24T06:53:01;22.20;99.90
16118;DHT22;8163;50.118;5.342;2023-07-24T06:55:29;24.80;89.10
16118;DHT22;8163;50.118;5.342;2023-07-24T06:57:56;26.50;53.40
16118;DHT22;8163;50.118;5.342;2023-07-24T07:00:23;25.90;18.10
16118;DHT22;8163;50.118;5.342;2023-07-24T07:02:50;26.90;1.00
16118;DHT22;8163;50.118;5.342;2023-07-24T07:05:20;25.20;1.00
16118;DHT22;8163;50.118;5.342;2023-07-24T07:07:47;24.10;1.00
16118;DHT22;8163;50.118;5.342;2023-07-24T07:10:15;23.50;1.00
16118;DHT22;8163;50.118;5.342;2023-07-24T07:12:44;22.60;1.00
16118;DHT22;8163;50.118;5.342;2023-07-24T07:15:11;21.80;1.00
16118;DHT22;8163;50.118;5.342;2023-07-24T07:17:38;21.20;1.00
16118;DHT22;8163;50.118;5.342;2023-07-24T07:20:06;20.70;1.00
16118;DHT22;8163;50.118;5.342;2023-07-24T07:22:33;20.50;1.00
16118;DHT22;8163;50.118;5.342;2023-07-24T07:25:01;20.20;1.00
16118;DHT22;8163;50.118;5.342;2023-07-24T07:27:29;19.80;6.80
16118;DHT22;8163;50.118;5.342;2023-07-24T07:29:56;19.50;12.90
16118;DHT22;8163;50.118;5.342;2023-07-24T07:32:23;19.30;20.60
16118;DHT22;8163;50.118;5.342;2023-07-24T07:34:50;19.00;27.20
16118;DHT22;8163;50.118;5.342;2023-07-24T07:37:17;18.80;35.80
16118;DHT22;8163;50.118;5.342;2023-07-24T07:39:44;18.60;42.50
16118;DHT22;8163;50.118;5.342;2023-07-24T07:42:11;18.40;47.90
16118;DHT22;8163;50.118;5.342;2023-07-24T07:44:39;18.30;55.00
16118;DHT22;8163;50.118;5.342;2023-07-24T07:47:07;18.20;62.00
16118;DHT22;8163;50.118;5.342;2023-07-24T07:49:34;18.30;70.30
16118;DHT22;8163;50.118;5.342;2023-07-24T07:52:01;18.30;78.90
16118;DHT22;8163;50.118;5.342;2023-07-24T07:54:28;18.30;86.60
16118;DHT22;8163;50.118;5.342;2023-07-24T07:56:55;18.20;90.40
16118;DHT22;8163;50.118;5.342;2023-07-24T07:59:22;18.20;91.20
16118;DHT22;8163;50.118;5.342;2023-07-24T08:01:50;18.10;92.10
16118;DHT22;8163;50.118;5.342;2023-07-24T08:04:17;18.10;93.80
16118;DHT22;8163;50.118;5.342;2023-07-24T08:06:44;18.10;95.40
16118;DHT22;8163;50.118;5.342;2023-07-24T08:09:11;18.20;96.90
16118;DHT22;8163;50.118;5.342;2023-07-24T08:11:38;18.30;98.90
16118;DHT22;8163;50.118;5.342;2023-07-24T08:14:05;18.50;99.90
16118;DHT22;8163;50.118;5.342;2023-07-24T08:16:32;18.70;99.90
16118;DHT22;8163;50.118;5.342;2023-07-24T08:19:00;18.80;99.90
16118;DHT22;8163;50.118;5.342;2023-07-24T08:21:27;18.90;99.90
16118;DHT22;8163;50.118;5.342;2023-07-24T08:23:54;19.10;99.90
16118;DHT22;8163;50.118;5.342;2023-07-24T08:26:22;19.80;99.90
16118;DHT22;8163;50.118;5.342;2023-07-24T08:28:51;20.50;99.90
16118;DHT22;8163;50.118;5.342;2023-07-24T08:31:19;21.10;99.90
16118;DHT22;8163;50.118;5.342;2023-07-24T08:33:46;22.80;99.90
16118;DHT22;8163;50.118;5.342;2023-07-24T08:36:15;23.90;91.50
16118;DHT22;8163;50.118;5.342;2023-07-24T08:38:42;25.20;69.90
16118;DHT22;8163;50.118;5.342;2023-07-24T08:41:10;24.90;42.80
16118;DHT22;8163;50.118;5.342;2023-07-24T08:43:39;24.80;20.40
16118;DHT22;8163;50.118;5.342;2023-07-24T08:46:06;23.80;5.60
16118;DHT22;8163;50.118;5.342;2023-07-24T08:48:35;23.80;1.00
16118;DHT22;8163;50.118;5.342;2023-07-24T08:51:02;23.90;1.00
16118;DHT22;8163;50.118;5.342;2023-07-24T08:53:32;22.70;1.00
16118;DHT22;8163;50.118;5.342;2023-07-24T08:56:02;21.90;1.00
16118;DHT22;8163;50.118;5.342;2023-07-24T08:58:29;21.30;1.00
16118;DHT22;8163;50.118;5.342;2023-07-24T09:00:56;21.00;1.00
16118;DHT22;8163;50.118;5.342;2023-07-24T09:03:24;20.70;1.00
16118;DHT22;8163;50.118;5.342;2023-07-24T09:05:51;20.80;1.00
16118;DHT22;8163;50.118;5.342;2023-07-24T09:08:28;21.60;1.20
16118;DHT22;8163;50.118;5.342;2023-07-24T09:10:57;22.00;7.80
16118;DHT22;8163;50.118;5.342;2023-07-24T09:13:24;22.00;7.80
16118;DHT22;8163;50.118;5.342;2023-07-24T09:15:51;21.70;1.00
16118;DHT22;8163;50.118;5.342;2023-07-24T09:18:18;21.60;1.10
16118;DHT22;8163;50.118;5.342;2023-07-24T09:20:45;21.30;4.30
16118;DHT22;8163;50.118;5.342;2023-07-24T09:23:14;21.20;6.80
16118;DHT22;8163;50.118;5.342;2023-07-24T09:25:42;21.00;5.40
16118;DHT22;8163;50.118;5.342;2023-07-24T09:28:11;20.80;6.80
16118;DHT22;8163;50.118;5.342;2023-07-24T09:30:39;20.70;11.20
16118;DHT22;8163;50.118;5.342;2023-07-24T09:33:08;20.90;11.50
16118;DHT22;8163;50.118;5.342;2023-07-24T09:35:35;20.80;9.60
16118;DHT22;8163;50.118;5.342;2023-07-24T09:38:04;20.70;8.20
16118;DHT22;8163;50.118;5.342;2023-07-24T09:40:39;20.50;7.90
16118;DHT22;8163;50.118;5.342;2023-07-24T09:43:22;20.30;13.20
16118;DHT22;8163;50.118;5.342;2023-07-24T09:45:52;20.30;15.70
16118;DHT22;8163;50.118;5.342;2023-07-24T09:48:23;20.30;18.40
16118;DHT22;8163;50.118;5.342;2023-07-24T09:50:53;20.60;24.30
16118;DHT22;8163;50.118;5.342;2023-07-24T09:53:31;20.60;25.70
16118;DHT22;8163;50.118;5.342;2023-07-24T09:56:02;20.40;23.10
16118;DHT22;8163;50.118;5.342;2023-07-24T09:58:32;20.20;26.30
16118;DHT22;8163;50.118;5.342;2023-07-24T10:01:00;20.10;20.60
16118;DHT22;8163;50.118;5.342;2023-07-24T10:03:28;20.00;16.20
16118;DHT22;8163;50.118;5.342;2023-07-24T10:05:56;20.10;18.50
16118;DHT22;8163;50.118;5.342;2023-07-24T10:08:24;20.50;24.60
16118;DHT22;8163;50.118;5.342;2023-07-24T10:10:58;21.20;35.10
16118;DHT22;8163;50.118;5.342;2023-07-24T10:13:26;21.10;29.50
16118;DHT22;8163;50.118;5.342;2023-07-24T10:15:56;22.60;37.80
16118;DHT22;8163;50.118;5.342;2023-07-24T10:18:26;23.60;43.50
16118;DHT22;8163;50.118;5.342;2023-07-24T10:21:00;23.90;38.00
16118;DHT22;8163;50.118;5.342;2023-07-24T10:23:28;23.50;21.00
16118;DHT22;8163;50.118;5.342;2023-07-24T10:25:55;22.90;11.90
16118;DHT22;8163;50.118;5.342;2023-07-24T11:02:09;23.90;11.10
16118;DHT22;8163;50.118;5.342;2023-07-24T11:04:37;23.40;1.70
16118;DHT22;8163;50.118;5.342;2023-07-24T11:07:07;23.10;1.00
16118;DHT22;8163;50.118;5.342;2023-07-24T11:09:35;23.00;1.00
16118;DHT22;8163;50.118;5.342;2023-07-24T11:12:13;23.90;3.80
16118;DHT22;8163;50.118;5.342;2023-07-24T11:14:51;24.40;13.00
16118;DHT22;8163;50.118;5.342;2023-07-24T11:17:21;24.40;4.10
16118;DHT22;8163;50.118;5.342;2023-07-24T11:19:49;24.10;1.00
16118;DHT22;8163;50.118;5.342;2023-07-24T11:22:21;24.00;1.00
16118;DHT22;8163;50.118;5.342;2023-07-24T11:24:48;23.90;1.00
16118;DHT22;8163;50.118;5.342;2023-07-24T11:27:16;24.10;1.00
16118;DHT22;8163;50.118;5.342;2023-07-24T11:29:48;24.60;16.00
16118;DHT22;8163;50.118;5.342;2023-07-24T11:32:20;24.40;20.90
16118;DHT22;8163;50.118;5.342;2023-07-24T11:34:50;24.20;15.50
16118;DHT22;8163;50.118;5.342;2023-07-24T11:37:22;23.90;13.40
16118;DHT22;8163;50.118;5.342;2023-07-24T11:39:58;24.00;9.90
16118;DHT22;8163;50.118;5.342;2023-07-24T11:42:26;23.90;11.20
16118;DHT22;8163;50.118;5.342;2023-07-24T11:44:53;24.10;8.20
16118;DHT22;8163;50.118;5.342;2023-07-24T11:47:23;24.60;19.80
16118;DHT22;8163;50.118;5.342;2023-07-24T11:49:57;24.70;27.50
16118;DHT22;8163;50.118;5.342;2023-07-24T11:52:24;25.00;29.70
16118;DHT22;8163;50.118;5.342;2023-07-24T11:54:58;25.60;28.90
16118;DHT22;8163;50.118;5.342;2023-07-24T11:57:29;26.00;29.70
16118;DHT22;8163;50.118;5.342;2023-07-24T11:59:56;26.20;23.40
16118;DHT22;8163;50.118;5.342;2023-07-24T12:02:25;26.30;8.00
16118;DHT22;8163;50.118;5.342;2023-07-24T12:04:56;26.30;2.40
16118;DHT22;8163;50.118;5.342;2023-07-24T12:07:29;26.50;3.00
16118;DHT22;8163;50.118;5.342;2023-07-24T12:09:58;26.50;1.00
16118;DHT22;8163;50.118;5.342;2023-07-24T12:12:25;26.30;1.00
16118;DHT22;8163;50.118;5.342;2023-07-24T12:15:03;26.20;1.00
16118;DHT22;8163;50.118;5.342;2023-07-24T12:17:33;26.20;1.00
16118;DHT22;8163;50.118;5.342;2023-07-24T12:20:02;25.80;1.00
16118;DHT22;8163;50.118;5.342;2023-07-24T12:22:30;25.40;2.30
16118;DHT22;8163;50.118;5.342;2023-07-24T12:24:57;24.90;1.00
16118;DHT22;8163;50.118;5.342;2023-07-24T12:27:26;24.30;1.00
16118;DHT22;8163;50.118;5.342;2023-07-24T12:29:53;23.60;1.00
16118;DHT22;8163;50.118;5.342;2023-07-24T12:32:20;23.10;1.00
16118;DHT22;8163;50.118;5.342;2023-07-24T12:34:51;22.80;1.00
16118;DHT22;8163;50.118;5.342;2023-07-24T12:37:18;22.50;1.00
16118;DHT22;8163;50.118;5.342;2023-07-24T12:39:46;22.50;9.00
16118;DHT22;8163;50.118;5.342;2023-07-24T12:42:13;22.30;12.00
16118;DHT22;8163;50.118;5.342;2023-07-24T12:44:41;22.20;13.60
16118;DHT22;8163;50.118;5.342;2023-07-24T12:47:10;21.90;6.60
16118;DHT22;8163;50.118;5.342;2023-07-24T12:49:38;21.70;3.30
16118;DHT22;8163;50.118;5.342;2023-07-24T12:52:07;21.50;4.40
16118;DHT22;8163;50.118;5.342;2023-07-24T12:54:34;21.60;9.00
16118;DHT22;8163;50.118;5.342;2023-07-24T12:57:02;21.90;16.60
16118;DHT22;8163;50.118;5.342;2023-07-24T12:59:29;21.90;11.30
16118;DHT22;8163;50.118;5.342;2023-07-24T13:01:58;21.80;15.00
16118;DHT22;8163;50.118;5.342;2023-07-24T13:04:26;21.80;17.30
16118;DHT22;8163;50.118;5.342;2023-07-24T13:06:55;21.80;20.90
16118;DHT22;8163;50.118;5.342;2023-07-24T13:09:26;21.70;22.80
16118;DHT22;8163;50.118;5.342;2023-07-24T13:11:54;21.60;22.10
16118;DHT22;8163;50.118;5.342;2023-07-24T13:14:21;21.40;20.00
16118;DHT22;8163;50.118;5.342;2023-07-24T13:16:50;21.20;16.10
16118;DHT22;8163;50.118;5.342;2023-07-24T13:19:17;21.10;11.70
16118;DHT22;8163;50.118;5.342;2023-07-24T13:21:44;20.90;7.10
16118;DHT22;8163;50.118;5.342;2023-07-24T13:24:12;20.70;1.40
16118;DHT22;8163;50.118;5.342;2023-07-24T13:26:41;20.70;1.00
16118;DHT22;8163;50.118;5.342;2023-07-24T13:29:08;20.50;1.00
16118;DHT22;8163;50.118;5.342;2023-07-24T13:31:35;20.40;1.00
16118;DHT22;8163;50.118;5.342;2023-07-24T13:34:03;20.40;1.00
16118;DHT22;8163;50.118;5.342;2023-07-24T13:36:30;20.20;1.00
16118;DHT22;8163;50.118;5.342;2023-07-24T13:38:57;20.10;1.00
16118;DHT22;8163;50.118;5.342;2023-07-24T13:41:24;20.00;1.00
16118;DHT22;8163;50.118;5.342;2023-07-24T13:43:53;19.90;1.00
16118;DHT22;8163;50.118;5.342;2023-07-24T13:46:20;19.90;1.00
16118;DHT22;8163;50.118;5.342;2023-07-24T13:48:48;19.90;1.00
16118;DHT22;8163;50.118;5.342;2023-07-24T13:51:15;20.00;1.00
16118;DHT22;8163;50.118;5.342;2023-07-24T13:53:42;20.20;1.00
16118;DHT22;8163;50.118;5.342;2023-07-24T13:56:11;20.40;1.00
16118;DHT22;8163;50.118;5.342;2023-07-24T13:58:39;20.70;1.00
16118;DHT22;8163;50.118;5.342;2023-07-24T14:01:09;20.90;1.00
16118;DHT22;8163;50.118;5.342;2023-07-24T14:03:36;21.00;1.00
16118;DHT22;8163;50.118;5.342;2023-07-24T14:06:03;21.00;1.00
16118;DHT22;8163;50.118;5.342;2023-07-24T14:08:31;20.90;1.00
16118;DHT22;8163;50.118;5.342;2023-07-24T14:10:58;20.80;1.00
16118;DHT22;8163;50.118;5.342;2023-07-24T14:13:26;20.60;1.00
16118;DHT22;8163;50.118;5.342;2023-07-24T14:15:53;20.50;1.00
16118;DHT22;8163;50.118;5.342;2023-07-24T14:18:21;20.50;1.00
16118;DHT22;8163;50.118;5.342;2023-07-24T14:20:49;20.50;1.00
16118;DHT22;8163;50.118;5.342;2023-07-24T14:23:21;20.50;1.00
16118;DHT22;8163;50.118;5.342;2023-07-24T14:25:47;20.30;1.00
16118;DHT22;8163;50.118;5.342;2023-07-24T14:28:15;20.30;1.00
16118;DHT22;8163;50.118;5.342;2023-07-24T14:30:42;20.20;1.00
16118;DHT22;8163;50.118;5.342;2023-07-24T14:33:09;20.10;1.00
16118;DHT22;8163;50.118;5.342;2023-07-24T14:35:38;20.20;1.00
16118;DHT22;8163;50.118;5.342;2023-07-24T14:38:06;20.20;1.00
16118;DHT22;8163;50.118;5.342;2023-07-24T14:40:33;20.10;1.00
16118;DHT22;8163;50.118;5.342;2023-07-24T14:43:00;20.10;1.00
16118;DHT22;8163;50.118;5.342;2023-07-24T14:45:28;20.00;1.00
16118;DHT22;8163;50.118;5.342;2023-07-24T14:47:54;19.80;1.00
16118;DHT22;8163;50.118;5.342;2023-07-24T14:50:22;19.70;1.00
16118;DHT22;8163;50.118;5.342;2023-07-24T14:52:53;19.80;1.00
16118;DHT22;8163;50.118;5.342;2023-07-24T14:55:22;19.80;1.00
16118;DHT22;8163;50.118;5.342;2023-07-24T14:57:49;19.70;1.00
16118;DHT22;8163;50.118;5.342;2023-07-24T15:00:17;19.60;1.00
16118;DHT22;8163;50.118;5.342;2023-07-24T15:02:44;19.50;1.00
16118;DHT22;8163;50.118;5.342;2023-07-24T15:05:11;19.30;1.00
16118;DHT22;8163;50.118;5.342;2023-07-24T15:07:38;19.20;1.00
16118;DHT22;8163;50.118;5.342;2023-07-24T15:10:07;19.00;1.00
16118;DHT22;8163;50.118;5.342;2023-07-24T15:12:34;18.90;1.00
16118;DHT22;8163;50.118;5.342;2023-07-24T15:15:03;18.80;1.00
16118;DHT22;8163;50.118;5.342;2023-07-24T15:17:32;18.70;1.00
16118;DHT22;8163;50.118;5.342;2023-07-24T15:20:00;18.70;1.00
16118;DHT22;8163;50.118;5.342;2023-07-24T15:22:27;18.70;1.00
16118;DHT22;8163;50.118;5.342;2023-07-24T15:24:54;18.90;1.00
16118;DHT22;8163;50.118;5.342;2023-07-24T15:27:23;19.20;1.00
16118;DHT22;8163;50.118;5.342;2023-07-24T15:29:50;19.40;1.00
16118;DHT22;8163;50.118;5.342;2023-07-24T15:32:18;19.60;1.00
16118;DHT22;8163;50.118;5.342;2023-07-24T15:34:47;19.70;1.00
16118;DHT22;8163;50.118;5.342;2023-07-24T15:37:14;19.80;1.00
16118;DHT22;8163;50.118;5.342;2023-07-24T15:39:41;19.80;1.00
16118;DHT22;8163;50.118;5.342;2023-07-24T15:42:09;19.60;1.00
16118;DHT22;8163;50.118;5.342;2023-07-24T15:44:37;19.50;1.00
16118;DHT22;8163;50.118;5.342;2023-07-24T15:47:04;19.40;1.00
16118;DHT22;8163;50.118;5.342;2023-07-24T15:49:31;19.40;1.00
16118;DHT22;8163;50.118;5.342;2023-07-24T15:51:58;19.40;1.00
16118;DHT22;8163;50.118;5.342;2023-07-24T15:54:25;19.50;1.00
16118;DHT22;8163;50.118;5.342;2023-07-24T15:56:53;19.50;1.00
16118;DHT22;8163;50.118;5.342;2023-07-24T15:59:20;19.50;1.00
16118;DHT22;8163;50.118;5.342;2023-07-24T16:01:49;19.60;1.00
16118;DHT22;8163;50.118;5.342;2023-07-24T16:04:16;19.70;1.00
16118;DHT22;8163;50.118;5.342;2023-07-24T16:06:43;19.80;1.00
16118;DHT22;8163;50.118;5.342;2023-07-24T16:09:11;19.80;1.00
16118;DHT22;8163;50.118;5.342;2023-07-24T16:11:38;19.60;1.00
16118;DHT22;8163;50.118;5.342;2023-07-24T16:14:05;19.60;1.00
16118;DHT22;8163;50.118;5.342;2023-07-24T16:16:33;19.50;1.00
16118;DHT22;8163;50.118;5.342;2023-07-24T16:19:15;19.50;1.00
16118;DHT22;8163;50.118;5.342;2023-07-24T16:21:44;19.70;1.00
16118;DHT22;8163;50.118;5.342;2023-07-24T16:24:12;19.90;1.00
16118;DHT22;8163;50.118;5.342;2023-07-24T16:26:40;20.00;1.00
16118;DHT22;8163;50.118;5.342;2023-07-24T16:29:07;20.00;1.00
16118;DHT22;8163;50.118;5.342;2023-07-24T16:31:35;19.80;1.00